If you wish to contribute or participate in the discussions about articles you are invited to join SKYbrary as a registered user

 Actions

Quimper-Cornouaille Airport

From SKYbrary Wiki

LFRQ
Airport
ICAO: LFRQ – IATA: UIP
Summary
Name Quimper-Cornouaille Airport
Region Europe
Territory France FR.gif
Location , Bretagne
Serving Quimper
Elevation 90.526 m
297 ft
297 ft90.526 m
Type medium airport
Coordinates 47° 58' 29.93" N, 4° 10' 4.03" W
Runways
Designator Length Width Surface ROPS
4/22 810 m2,657.48 ft
45 m147.638 ft
ASP /
10/28 2150 m7,053.806 ft
45 m147.638 ft
ASP yes/yes


METAR
Observation LFRQ 100830Z AUTO 19011KT 160V220 9999 -RA BKN015 BKN022 OVC050 11/09 Q1023 BECMG 20015G25KT 4000 -RADZ OVC006
Station Quimper
Date/Time 10 December 2019 08:30:00
Wind direction 190°
Wind speed 11 kts
Lowest cloud amount broken clouds
Temperature 11°C
Dew point 9°C
Humidity 87%
QNH 1023 hPa
Weather condition light rain